Time;durP1;ratioP1;P1;durP2;ratioP2;P2;SDS_P1;SDS_P2;PMS_P1;PMS_P2;Temp;Humidity;BMP_temperature;BMP_pressure;BME280_temperature;BME280_humidity;BME280_pressure;Samples;Min_cycle;Max_cycle;Signal;HPM_P1;HPM_P2
2022/02/12 00:00:37;;;;;;;3.63;1.80;;;1.50;92.10;;;;;;4985387;28;20596;-72
2022/02/12 00:03:04;;;;;;;11.48;2.50;;;1.50;92.30;;;;;;4985308;28;20026;-70
2022/02/12 00:05:31;;;;;;;7.22;2.35;;;1.50;92.30;;;;;;4984765;28;20034;-74
2022/02/12 00:07:58;;;;;;;7.78;2.47;;;1.50;92.40;;;;;;4985340;28;20584;-70
2022/02/12 00:10:26;;;;;;;6.68;2.50;;;1.50;92.40;;;;;;4985586;28;20038;-73
2022/02/12 00:12:52;;;;;;;6.28;2.47;;;1.40;92.60;;;;;;4984677;28;20018;-73
2022/02/12 00:15:18;;;;;;;10.05;2.20;;;1.40;93.20;;;;;;4985482;28;20437;-71
2022/02/12 00:17:45;;;;;;;6.00;2.25;;;1.30;93.50;;;;;;4984696;28;20405;-71
2022/02/12 00:20:12;;;;;;;7.72;1.95;;;1.30;93.90;;;;;;4984861;28;20065;-70
2022/02/12 00:22:38;;;;;;;3.70;1.92;;;1.30;93.90;;;;;;4984692;28;20061;-72
2022/02/12 00:25:04;;;;;;;5.38;1.92;;;1.40;93.80;;;;;;4984453;28;20909;-75
2022/02/12 00:27:30;;;;;;;3.63;1.63;;;1.50;93.60;;;;;;4984539;28;20049;-74
2022/02/12 00:29:56;;;;;;;5.10;2.03;;;1.50;93.20;;;;;;4984575;28;20023;-72
2022/02/12 00:32:22;;;;;;;5.45;2.10;;;1.40;93.10;;;;;;4984768;28;20701;-72
2022/02/12 00:34:48;;;;;;;6.43;1.98;;;1.50;93.00;;;;;;4984517;28;20032;-71
2022/02/12 00:37:14;;;;;;;4.78;1.75;;;1.40;93.10;;;;;;4984814;28;20031;-72
2022/02/12 00:39:40;;;;;;;2.65;1.55;;;1.50;93.10;;;;;;4984474;28;20039;-71
2022/02/12 00:42:06;;;;;;;6.28;1.73;;;1.40;92.80;;;;;;4984321;28;20057;-72
2022/02/12 00:44:32;;;;;;;2.90;1.95;;;1.40;92.60;;;;;;4984803;28;20037;-72
2022/02/12 00:46:58;;;;;;;2.83;1.63;;;1.40;92.60;;;;;;4983518;28;20499;-72
2022/02/12 00:49:24;;;;;;;5.72;1.80;;;1.40;92.60;;;;;;4984236;28;20153;-72
2022/02/12 00:51:51;;;;;;;3.22;1.77;;;1.40;92.60;;;;;;4988732;28;20033;-72
2022/02/12 00:54:17;;;;;;;3.90;1.55;;;1.40;92.70;;;;;;4987881;28;20018;-72
2022/02/12 00:56:43;;;;;;;4.40;1.67;;;1.30;92.60;;;;;;4990785;28;20038;-72
2022/02/12 00:59:09;;;;;;;5.43;1.55;;;1.40;92.50;;;;;;4983705;28;20088;-72
2022/02/12 01:01:35;;;;;;;5.50;1.90;;;1.30;92.60;;;;;;4985200;28;20034;-72
2022/02/12 01:04:02;;;;;;;5.50;1.83;;;1.30;92.90;;;;;;4985956;28;20446;-72
2022/02/12 01:06:29;;;;;;;4.32;2.25;;;1.20;93.20;;;;;;4984322;28;20465;-72
2022/02/12 01:08:58;;;;;;;8.35;2.75;;;1.20;93.50;;;;;;4980147;28;20023;-72
2022/02/12 01:11:24;;;;;;;4.05;1.65;;;1.20;93.60;;;;;;4983991;28;20027;-72
2022/02/12 01:13:51;;;;;;;5.28;2.63;;;1.30;93.50;;;;;;4983220;28;20083;-72
2022/02/12 01:16:17;;;;;;;9.43;1.80;;;1.20;93.70;;;;;;4982671;28;20449;-72
2022/02/12 01:18:43;;;;;;;3.88;2.03;;;1.20;94.00;;;;;;4982086;28;20042;-72
2022/02/12 01:21:09;;;;;;;5.15;2.30;;;1.20;94.10;;;;;;4984081;28;20040;-72
2022/02/12 01:23:35;;;;;;;4.63;1.80;;;1.30;93.90;;;;;;4983912;28;20528;-72
2022/02/12 01:26:03;;;;;;;3.67;1.55;;;1.30;93.60;;;;;;4983465;28;20058;-72
2022/02/12 01:28:28;;;;;;;5.97;2.35;;;1.30;93.30;;;;;;4979942;28;20696;-72
2022/02/12 01:30:54;;;;;;;3.28;1.75;;;1.30;93.30;;;;;;4983419;28;20034;-72
2022/02/12 01:33:20;;;;;;;5.05;1.67;;;1.30;93.20;;;;;;4990939;28;20073;-72
2022/02/12 01:35:46;;;;;;;3.92;1.52;;;1.30;93.10;;;;;;4983062;28;20038;-72
2022/02/12 01:38:11;;;;;;;4.30;1.60;;;1.30;93.10;;;;;;4982847;28;20254;-72
2022/02/12 01:40:37;;;;;;;6.55;2.00;;;1.30;93.00;;;;;;4982242;28;20034;-72
2022/02/12 01:43:06;;;;;;;6.43;2.08;;;1.30;93.20;;;;;;4990249;28;20079;-72
2022/02/12 01:45:34;;;;;;;11.80;2.13;;;1.20;93.60;;;;;;4983438;28;20034;-72
2022/02/12 01:47:59;;;;;;;7.15;2.47;;;1.20;94.00;;;;;;4979249;28;20070;-72
2022/02/12 01:50:25;;;;;;;3.50;1.40;;;1.20;94.10;;;;;;4983506;28;20138;-72
2022/02/12 01:52:52;;;;;;;4.20;2.00;;;1.30;93.80;;;;;;4983308;28;20133;-72
2022/02/12 01:55:19;;;;;;;5.60;1.63;;;1.30;93.50;;;;;;4984817;28;20035;-72
2022/02/12 01:57:45;;;;;;;6.00;1.88;;;1.40;93.20;;;;;;4981452;28;20061;-72
2022/02/12 02:00:14;;;;;;;3.83;1.90;;;1.30;93.20;;;;;;4982638;28;20030;-72
2022/02/12 02:02:40;;;;;;;6.47;2.28;;;1.30;93.30;;;;;;4983163;28;20129;-72
2022/02/12 02:05:09;;;;;;;6.70;1.60;;;1.40;93.20;;;;;;4982271;28;20034;-72
2022/02/12 02:07:36;;;;;;;4.38;1.70;;;1.40;93.10;;;;;;4982803;28;20048;-72
2022/02/12 02:10:04;;;;;;;3.45;1.70;;;1.30;93.00;;;;;;4982519;28;20453;-72
2022/02/12 02:12:30;;;;;;;3.45;1.58;;;1.30;92.90;;;;;;4982973;28;20038;-72
2022/02/12 02:14:56;;;;;;;4.60;2.20;;;1.30;92.90;;;;;;4986166;28;20041;-72
2022/02/12 02:17:21;;;;;;;7.10;2.03;;;1.20;92.90;;;;;;4983245;28;20125;-72
2022/02/12 02:19:47;;;;;;;4.47;1.60;;;1.20;93.20;;;;;;4984690;28;20671;-72
2022/02/12 02:22:16;;;;;;;5.38;1.83;;;1.20;93.20;;;;;;4983338;28;20112;-72
2022/02/12 02:24:43;;;;;;;4.45;1.50;;;1.30;93.10;;;;;;4984581;28;20038;-72
2022/02/12 02:27:11;;;;;;;3.78;1.63;;;1.30;93.00;;;;;;4983546;28;20045;-73
2022/02/12 02:29:38;;;;;;;2.60;1.40;;;1.30;92.80;;;;;;4983215;28;20034;-73
2022/02/12 02:32:04;;;;;;;2.88;1.55;;;1.20;92.80;;;;;;4982929;28;20034;-73
2022/02/12 02:34:30;;;;;;;5.88;1.70;;;1.20;92.90;;;;;;4989182;28;20041;-72
2022/02/12 02:36:55;;;;;;;3.65;1.45;;;1.20;93.00;;;;;;4983183;28;20026;-72
2022/02/12 02:39:21;;;;;;;4.20;1.63;;;1.10;93.00;;;;;;4980535;28;20026;-72
2022/02/12 02:41:47;;;;;;;3.15;1.35;;;1.10;93.00;;;;;;4982405;28;20034;-72
2022/02/12 02:44:13;;;;;;;4.70;1.88;;;1.10;92.90;;;;;;4982064;28;20026;-72
2022/02/12 02:46:39;;;;;;;6.57;1.85;;;1.10;93.00;;;;;;4982389;28;20045;-72
2022/02/12 02:49:05;;;;;;;5.18;1.70;;;1.10;93.20;;;;;;4982338;28;20034;-72
2022/02/12 02:57:00;;;;;;;5.68;1.63;;;1.10;93.10;;;;;;4978217;28;20026;-72
2022/02/12 02:59:25;;;;;;;3.88;1.63;;;1.00;93.10;;;;;;4981759;28;20088;-72
2022/02/12 03:01:53;;;;;;;3.88;1.33;;;1.10;93.30;;;;;;4982266;28;20031;-72
2022/02/12 03:04:20;;;;;;;4.43;1.60;;;1.10;93.10;;;;;;4981316;28;20030;-72
2022/02/12 03:06:46;;;;;;;2.67;1.58;;;1.10;93.00;;;;;;4983976;28;20604;-72
2022/02/12 03:09:12;;;;;;;3.13;1.20;;;1.00;93.00;;;;;;4982497;28;20038;-71
2022/02/12 03:11:38;;;;;;;5.35;1.95;;;1.00;93.10;;;;;;4987641;28;20757;-71
2022/02/12 03:14:04;;;;;;;5.53;1.70;;;1.00;93.60;;;;;;4986632;28;20553;-71
2022/02/12 03:16:31;;;;;;;4.57;1.52;;;1.00;93.60;;;;;;4986682;28;20038;-72
2022/02/12 03:18:56;;;;;;;7.65;2.15;;;0.90;93.70;;;;;;4986208;28;20034;-72
2022/02/12 03:21:22;;;;;;;4.80;1.98;;;0.90;93.80;;;;;;4987147;28;20034;-72
2022/02/12 03:23:48;;;;;;;5.72;1.67;;;0.90;94.30;;;;;;4986445;28;20756;-72
2022/02/12 03:26:14;;;;;;;7.55;2.00;;;0.90;94.00;;;;;;4986764;28;20030;-72
2022/02/12 03:28:40;;;;;;;5.38;1.60;;;0.90;94.00;;;;;;4986325;28;20506;-72
2022/02/12 03:31:06;;;;;;;3.40;1.50;;;0.90;93.80;;;;;;4986187;28;20094;-72
2022/02/12 03:33:32;;;;;;;5.05;1.17;;;1.00;93.40;;;;;;4983449;28;20042;-71
2022/02/12 03:35:58;;;;;;;5.18;1.80;;;1.00;93.20;;;;;;4984043;28;20022;-72
2022/02/12 03:38:28;;;;;;;5.60;1.92;;;1.00;93.00;;;;;;4986553;28;20035;-72
2022/02/12 03:40:58;;;;;;;5.63;1.50;;;1.00;92.90;;;;;;4983561;28;20497;-72
2022/02/12 03:43:25;;;;;;;4.05;1.52;;;1.00;92.80;;;;;;4986478;28;20052;-72
2022/02/12 03:45:53;;;;;;;2.45;1.23;;;1.00;92.80;;;;;;4986012;28;20060;-72
2022/02/12 03:48:19;;;;;;;7.70;2.35;;;0.90;92.90;;;;;;4985763;28;20034;-71
2022/02/12 03:50:45;;;;;;;4.45;1.60;;;0.90;93.00;;;;;;4987872;28;20032;-72
2022/02/12 03:53:11;;;;;;;6.47;1.58;;;0.90;93.00;;;;;;4985765;28;20030;-72
2022/02/12 03:55:39;;;;;;;5.07;1.55;;;0.90;93.00;;;;;;4986991;28;20394;-72
2022/02/12 03:58:10;;;;;;;9.80;1.48;;;0.90;93.20;;;;;;4986354;28;20042;-72
2022/02/12 04:00:38;;;;;;;6.10;1.70;;;0.80;92.90;;;;;;4985269;28;20045;-72
2022/02/12 04:03:04;;;;;;;8.48;1.98;;;0.80;92.90;;;;;;4987332;28;20688;-72
2022/02/12 04:05:30;;;;;;;2.67;1.33;;;0.80;93.00;;;;;;4985135;28;20031;-72
2022/02/12 04:07:57;;;;;;;4.03;1.52;;;0.80;92.90;;;;;;4985314;28;20038;-72
2022/02/12 04:10:23;;;;;;;5.97;1.30;;;0.80;92.90;;;;;;4986166;28;20029;-72
2022/02/12 04:12:51;;;;;;;6.20;1.70;;;0.80;93.00;;;;;;4985631;28;20026;-72
2022/02/12 04:15:17;;;;;;;6.93;2.67;;;0.80;93.10;;;;;;4984672;28;20141;-72
2022/02/12 04:17:45;;;;;;;4.65;1.58;;;0.70;93.10;;;;;;4985641;28;20061;-71
2022/02/12 04:20:13;;;;;;;3.15;1.55;;;0.80;93.20;;;;;;4985260;28;20030;-72
2022/02/12 04:22:41;;;;;;;3.70;1.70;;;0.70;93.10;;;;;;4982355;28;20046;-72
2022/02/12 04:25:10;;;;;;;4.95;1.63;;;0.70;93.10;;;;;;4991359;28;20513;-72
2022/02/12 04:27:36;;;;;;;8.32;1.85;;;0.70;93.40;;;;;;4987610;28;20049;-72
2022/02/12 04:30:04;;;;;;;7.78;1.83;;;0.60;93.60;;;;;;4984899;28;20104;-72
2022/02/12 04:32:29;;;;;;;9.48;1.70;;;0.60;93.70;;;;;;4983280;28;20038;-72
2022/02/12 04:34:55;;;;;;;7.75;2.10;;;0.70;93.80;;;;;;4985432;28;20398;-72
2022/02/12 04:37:22;;;;;;;4.00;1.50;;;0.70;93.60;;;;;;4984338;28;20034;-72
2022/02/12 04:39:48;;;;;;;2.75;1.25;;;0.70;93.50;;;;;;4989784;28;20060;-72
2022/02/12 04:42:16;;;;;;;5.25;2.35;;;0.70;93.30;;;;;;4985132;28;20034;-72
2022/02/12 04:44:44;;;;;;;2.97;1.70;;;0.70;93.30;;;;;;4982635;28;20315;-72
2022/02/12 04:47:10;;;;;;;3.45;1.33;;;0.70;93.20;;;;;;4985038;28;20066;-72
2022/02/12 04:49:37;;;;;;;2.83;1.60;;;0.70;93.20;;;;;;4984855;28;20105;-72
2022/02/12 04:52:04;;;;;;;3.83;1.20;;;0.70;93.00;;;;;;4984247;28;20038;-72
2022/02/12 04:54:29;;;;;;;7.25;1.77;;;0.70;93.00;;;;;;4984434;28;20121;-72
2022/02/12 04:56:56;;;;;;;7.28;1.98;;;0.60;93.40;;;;;;4983316;28;20072;-72
2022/02/12 04:59:22;;;;;;;6.57;1.85;;;0.60;93.50;;;;;;4984544;28;20062;-72
2022/02/12 05:01:50;;;;;;;5.78;1.50;;;0.70;93.50;;;;;;4986132;28;20654;-72
2022/02/12 05:04:17;;;;;;;5.93;1.52;;;0.60;93.80;;;;;;4983917;28;20038;-72
2022/02/12 05:06:42;;;;;;;6.68;2.28;;;0.60;93.90;;;;;;4984791;28;20129;-72
2022/02/12 05:09:11;;;;;;;3.97;1.50;;;0.60;93.80;;;;;;4983686;28;20034;-72
2022/02/12 05:11:38;;;;;;;9.23;1.83;;;0.60;93.70;;;;;;4984884;28;20031;-72
2022/02/12 05:14:04;;;;;;;5.00;1.60;;;0.50;93.60;;;;;;4984134;28;20097;-72
2022/02/12 05:16:30;;;;;;;6.07;1.52;;;0.60;93.60;;;;;;4984563;28;20966;-72
2022/02/12 05:18:56;;;;;;;5.70;1.38;;;0.60;93.30;;;;;;4984102;28;20060;-72
2022/02/12 05:21:22;;;;;;;9.07;2.08;;;0.60;93.30;;;;;;4985192;28;20038;-72
2022/02/12 05:23:47;;;;;;;4.88;1.35;;;0.60;92.80;;;;;;4983439;28;20045;-72
2022/02/12 05:26:14;;;;;;;2.88;1.20;;;0.60;92.70;;;;;;4986092;28;20069;-72
2022/02/12 05:28:39;;;;;;;3.63;1.33;;;0.60;92.60;;;;;;4985603;28;20662;-72
2022/02/12 05:31:05;;;;;;;3.45;1.50;;;0.60;92.60;;;;;;4986981;28;20125;-72
2022/02/12 05:33:31;;;;;;;5.50;1.50;;;0.50;93.00;;;;;;4981846;28;20030;-72
2022/02/12 05:35:56;;;;;;;4.88;1.15;;;0.50;92.90;;;;;;4983507;28;20030;-72
2022/02/12 05:38:22;;;;;;;5.32;1.55;;;0.50;92.80;;;;;;4979088;28;20037;-72
2022/02/12 05:40:48;;;;;;;3.22;1.48;;;0.40;92.80;;;;;;4977003;28;20034;-72
2022/02/12 05:43:14;;;;;;;4.13;1.80;;;0.50;92.80;;;;;;4992995;28;20074;-72
2022/02/12 05:45:41;;;;;;;4.53;1.50;;;0.40;92.60;;;;;;4982414;28;20042;-72
2022/02/12 05:48:07;;;;;;;4.68;1.80;;;0.40;92.50;;;;;;4986725;28;20491;-72
2022/02/12 05:50:33;;;;;;;10.93;1.80;;;0.30;92.60;;;;;;4979590;28;20038;-72
2022/02/12 05:52:59;;;;;;;11.13;2.25;;;0.30;92.20;;;;;;4984567;28;20037;-72
2022/02/12 05:55:25;;;;;;;5.55;1.98;;;0.30;92.20;;;;;;4985198;28;20101;-72
2022/02/12 05:57:58;;;;;;;5.18;1.92;;;0.30;92.30;;;;;;4984338;28;20030;-72
2022/02/12 06:00:25;;;;;;;5.75;1.85;;;0.30;92.50;;;;;;4976313;28;20864;-72
2022/02/12 06:02:51;;;;;;;7.57;2.28;;;0.20;93.10;;;;;;4987667;28;20026;-72
2022/02/12 06:05:17;;;;;;;4.38;2.20;;;0.20;93.00;;;;;;4990017;28;20030;-72
2022/02/12 06:07:43;;;;;;;6.47;1.60;;;0.20;92.70;;;;;;4990466;28;20507;-72
2022/02/12 06:10:08;;;;;;;5.78;2.60;;;0.20;92.40;;;;;;4985446;28;20056;-72
2022/02/12 06:12:34;;;;;;;9.73;2.80;;;0.10;92.40;;;;;;4982574;28;20084;-72
2022/02/12 06:15:00;;;;;;;16.90;4.40;;;0.10;92.80;;;;;;4985705;28;20033;-72
2022/02/12 06:17:26;;;;;;;13.10;4.07;;;0.10;92.80;;;;;;4977185;28;20595;-72
2022/02/12 06:19:51;;;;;;;11.93;3.90;;;0.10;92.90;;;;;;4979608;28;20245;-72
2022/02/12 06:22:17;;;;;;;5.85;2.60;;;0.10;92.90;;;;;;4978111;28;20035;-72
2022/02/12 06:24:43;;;;;;;8.20;2.53;;;0.10;92.80;;;;;;4978460;28;20046;-72
2022/02/12 06:27:08;;;;;;;11.60;3.08;;;0.10;92.90;;;;;;4983868;28;20026;-72
2022/02/12 06:29:34;;;;;;;26.92;6.70;;;0.10;93.40;;;;;;4982605;28;20665;-72
2022/02/12 06:32:00;;;;;;;33.35;9.73;;;0.10;93.50;;;;;;4983859;28;20525;-72
2022/02/12 06:34:25;;;;;;;33.38;10.70;;;0.10;93.60;;;;;;4985493;28;20036;-72
2022/02/12 06:36:51;;;;;;;19.23;7.45;;;0.10;93.50;;;;;;4987149;28;20036;-72
2022/02/12 06:39:17;;;;;;;22.13;5.88;;;0.10;93.30;;;;;;4978379;28;20030;-72
2022/02/12 06:41:43;;;;;;;19.70;5.57;;;0.10;93.30;;;;;;4986370;28;20065;-72
2022/02/12 06:44:09;;;;;;;16.73;5.70;;;0.20;93.20;;;;;;4981343;28;20745;-72
2022/02/12 06:46:34;;;;;;;17.48;6.65;;;0.20;93.10;;;;;;4980267;28;20045;-72
2022/02/12 06:49:00;;;;;;;21.02;7.45;;;0.20;93.00;;;;;;4978848;28;20049;-72
2022/02/12 06:51:26;;;;;;;15.77;6.22;;;0.20;93.00;;;;;;4979013;28;20038;-72
2022/02/12 06:53:52;;;;;;;8.80;3.58;;;0.20;93.20;;;;;;4985208;28;20038;-72
2022/02/12 06:56:18;;;;;;;13.07;3.97;;;0.20;93.50;;;;;;4978434;28;20031;-72
2022/02/12 06:58:43;;;;;;;10.15;3.38;;;0.20;93.40;;;;;;4976729;28;20042;-72
2022/02/12 07:01:09;;;;;;;11.27;4.28;;;0.20;93.40;;;;;;4981890;28;20076;-72
2022/02/12 07:03:35;;;;;;;9.20;3.15;;;0.30;93.30;;;;;;4979915;28;20089;-72
2022/02/12 07:06:00;;;;;;;11.05;2.88;;;0.30;93.40;;;;;;4970713;28;20030;-72
2022/02/12 07:08:26;;;;;;;8.52;3.22;;;0.40;93.30;;;;;;4979475;28;20046;-72
2022/02/12 07:10:52;;;;;;;6.32;3.13;;;0.40;93.30;;;;;;4979242;28;20440;-72
2022/02/12 07:13:17;;;;;;;10.38;2.80;;;0.40;93.00;;;;;;4988082;28;20542;-72
2022/02/12 07:15:43;;;;;;;7.75;2.88;;;0.50;92.90;;;;;;4981265;28;20037;-72
2022/02/12 07:18:09;;;;;;;11.73;2.60;;;0.50;93.20;;;;;;4988827;28;20034;-72
2022/02/12 07:20:35;;;;;;;6.63;2.10;;;0.50;93.30;;;;;;4986717;28;20052;-72
2022/02/12 07:23:01;;;;;;;10.40;2.78;;;0.60;93.30;;;;;;4985425;28;20066;-72
2022/02/12 07:25:27;;;;;;;7.32;2.50;;;0.60;93.10;;;;;;4986652;28;20026;-72
2022/02/12 07:27:56;;;;;;;6.00;2.78;;;0.60;92.90;;;;;;4985783;28;20577;-72
2022/02/12 07:30:23;;;;;;;8.65;4.00;;;0.70;92.80;;;;;;4983192;28;20454;-72
2022/02/12 07:32:49;;;;;;;9.27;2.80;;;0.70;93.00;;;;;;4980614;28;20031;-72
2022/02/12 07:35:16;;;;;;;8.63;2.17;;;0.80;92.80;;;;;;4978119;28;20026;-72
2022/02/12 07:37:44;;;;;;;13.32;3.00;;;0.80;92.70;;;;;;4984541;28;20596;-72
2022/02/12 07:40:11;;;;;;;7.90;2.63;;;0.80;93.00;;;;;;4981904;28;20037;-72
2022/02/12 07:42:37;;;;;;;6.85;3.40;;;0.90;93.00;;;;;;4978218;28;20086;-72
2022/02/12 07:45:04;;;;;;;8.13;3.15;;;0.90;93.10;;;;;;4978227;28;20848;-72
2022/02/12 07:47:30;;;;;;;10.00;3.05;;;0.90;93.20;;;;;;4985566;28;20054;-72
2022/02/12 07:49:56;;;;;;;7.22;3.00;;;1.00;93.20;;;;;;4975649;28;20033;-72
2022/02/12 07:52:22;;;;;;;5.43;2.67;;;1.10;93.20;;;;;;4980070;28;20026;-72
2022/02/12 07:54:48;;;;;;;10.18;3.25;;;1.20;93.10;;;;;;4988703;28;20052;-70
2022/02/12 07:57:14;;;;;;;8.80;2.78;;;1.30;92.90;;;;;;4984470;28;20093;-71
2022/02/12 07:59:40;;;;;;;8.40;3.72;;;1.40;92.80;;;;;;4981504;28;20042;-71
2022/02/12 08:02:07;;;;;;;6.28;3.10;;;1.40;92.90;;;;;;4985739;28;20022;-70
2022/02/12 08:04:33;;;;;;;8.88;2.85;;;1.60;93.10;;;;;;4979246;28;20589;-71
2022/02/12 08:09:43;;;;;;;9.45;3.00;;;2.30;91.90;;;;;;4980629;28;20561;-71
2022/02/12 08:12:14;;;;;;;9.73;3.40;;;2.40;91.30;;;;;;4989310;28;20033;-71
2022/02/12 08:14:46;;;;;;;13.65;3.88;;;2.60;90.90;;;;;;4989467;28;20045;-72
2022/02/12 08:17:12;;;;;;;9.32;3.08;;;2.70;91.00;;;;;;4978580;28;20418;-71
2022/02/12 08:19:38;;;;;;;8.18;2.70;;;2.90;90.40;;;;;;4979574;28;20034;-70
2022/02/12 08:22:05;;;;;;;7.88;2.53;;;3.00;89.10;;;;;;4975706;28;20033;-68
2022/02/12 08:24:31;;;;;;;8.23;2.55;;;3.10;89.00;;;;;;4978377;28;20129;-69
2022/02/12 08:26:57;;;;;;;6.97;2.50;;;3.20;88.40;;;;;;4976986;28;20450;-74
2022/02/12 08:29:26;;;;;;;7.32;2.35;;;3.50;87.60;;;;;;4981734;28;20069;-74
2022/02/12 08:31:52;;;;;;;9.57;2.45;;;3.70;86.00;;;;;;4979617;28;20034;-74
2022/02/12 08:34:17;;;;;;;12.80;3.35;;;3.70;85.40;;;;;;4981023;28;20026;-74
2022/02/12 08:36:43;;;;;;;7.57;3.10;;;3.70;85.70;;;;;;4977742;28;20855;-74
2022/02/12 08:39:09;;;;;;;18.95;4.88;;;3.70;85.10;;;;;;4983511;28;20129;-74
2022/02/12 08:41:34;;;;;;;9.73;2.75;;;3.80;84.90;;;;;;4980353;28;20041;-69
2022/02/12 08:44:00;;;;;;;7.93;2.00;;;4.00;84.20;;;;;;4979836;28;20038;-74
2022/02/12 08:46:26;;;;;;;9.00;3.20;;;4.00;83.40;;;;;;4977563;28;20045;-74
2022/02/12 08:48:52;;;;;;;5.00;2.15;;;3.80;83.80;;;;;;4973057;28;20034;-74
2022/02/12 08:51:17;;;;;;;9.05;3.03;;;3.80;84.10;;;;;;4982490;28;20026;-73
2022/02/12 08:53:43;;;;;;;10.35;3.25;;;3.80;84.60;;;;;;4977272;28;20041;-72
2022/02/12 08:56:09;;;;;;;11.07;3.13;;;3.70;85.40;;;;;;4987083;28;20025;-74
2022/02/12 08:58:35;;;;;;;8.45;2.70;;;3.70;86.00;;;;;;4983493;28;20750;-69
2022/02/12 09:01:00;;;;;;;12.00;2.67;;;3.70;86.00;;;;;;4982069;28;20053;-71
2022/02/12 09:03:26;;;;;;;7.22;2.47;;;3.70;86.60;;;;;;4975349;28;20473;-71
2022/02/12 09:05:52;;;;;;;7.28;2.60;;;3.80;86.20;;;;;;4982149;28;20512;-71
2022/02/12 09:08:17;;;;;;;9.45;2.58;;;3.80;86.50;;;;;;4972004;28;20035;-71
2022/02/12 09:10:43;;;;;;;9.32;2.58;;;3.80;85.80;;;;;;4979264;28;20041;-71
2022/02/12 09:13:10;;;;;;;9.32;4.50;;;3.80;87.40;;;;;;4978710;28;20029;-71
2022/02/12 09:15:36;;;;;;;9.45;3.30;;;3.90;86.60;;;;;;4982455;28;20057;-70
2022/02/12 09:18:03;;;;;;;10.02;3.20;;;4.20;86.80;;;;;;4980591;28;20030;-70
2022/02/12 09:20:28;;;;;;;7.05;2.30;;;4.40;86.00;;;;;;4985053;28;20092;-72
2022/02/12 09:22:54;;;;;;;9.20;2.70;;;4.70;84.90;;;;;;4985221;28;20046;-70
2022/02/12 09:25:20;;;;;;;10.77;2.65;;;4.90;85.30;;;;;;4987245;28;20022;-71
2022/02/12 09:27:46;;;;;;;8.60;2.90;;;5.10;84.80;;;;;;4980442;28;20860;-70
2022/02/12 09:30:12;;;;;;;9.68;3.00;;;5.30;83.20;;;;;;4983990;28;20030;-70
2022/02/12 09:32:38;;;;;;;12.45;2.80;;;5.40;83.90;;;;;;4984901;28;20034;-71
2022/02/12 09:35:05;;;;;;;10.27;2.83;;;5.70;81.70;;;;;;4986909;28;20417;-71
2022/02/12 09:37:30;;;;;;;14.90;4.65;;;5.90;82.30;;;;;;4979800;28;20165;-70
2022/02/12 09:39:56;;;;;;;8.30;2.55;;;6.60;80.10;;;;;;4981536;28;20097;-71
2022/02/12 09:42:22;;;;;;;12.48;2.75;;;7.30;75.30;;;;;;4977699;28;20837;-71
2022/02/12 09:44:48;;;;;;;7.03;2.90;;;8.00;74.70;;;;;;4985636;28;20960;-71
2022/02/12 09:47:39;;;;;;;10.93;2.35;;;9.00;68.70;;;;;;4982949;28;20034;-72
2022/02/12 09:50:05;;;;;;;12.20;2.63;;;9.90;63.20;;;;;;4971546;28;20035;-71
2022/02/12 09:52:33;;;;;;;9.98;2.60;;;10.40;61.10;;;;;;4977330;28;20030;-72
2022/02/12 09:55:00;;;;;;;11.00;3.10;;;10.70;59.50;;;;;;4987700;28;20113;-71
2022/02/12 09:57:26;;;;;;;9.43;2.55;;;10.90;58.80;;;;;;4982780;28;20056;-68
2022/02/12 10:00:00;;;;;;;14.95;2.50;;;11.30;57.80;;;;;;4979217;28;20073;-72
2022/02/12 10:02:26;;;;;;;7.45;2.88;;;11.60;55.10;;;;;;4984950;28;20030;-72
2022/02/12 10:05:21;;;;;;;9.50;2.70;;;11.60;55.00;;;;;;4982298;28;20037;-72
2022/02/12 10:07:52;;;;;;;11.70;2.90;;;11.40;55.50;;;;;;4988636;28;20602;-72
2022/02/12 10:10:21;;;;;;;13.15;2.65;;;11.20;56.80;;;;;;4983687;28;20126;-71
2022/02/12 10:12:48;;;;;;;11.30;2.60;;;11.30;56.60;;;;;;4981625;28;20030;-72
2022/02/12 10:15:29;;;;;;;8.18;2.03;;;11.40;55.50;;;;;;4987146;28;20033;-71
2022/02/12 10:17:59;;;;;;;13.93;2.60;;;11.50;55.70;;;;;;4984346;28;20033;-71
2022/02/12 10:20:33;;;;;;;12.20;2.88;;;11.40;56.20;;;;;;4980903;28;20121;-72
2022/02/12 10:23:07;;;;;;;7.22;2.10;;;11.40;55.80;;;;;;4981834;28;20060;-72
2022/02/12 10:25:33;;;;;;;13.85;2.47;;;11.20;57.70;;;;;;4979818;28;20038;-71
2022/02/12 10:27:59;;;;;;;19.08;2.75;;;11.00;56.80;;;;;;4995333;28;20524;-72
2022/02/12 10:30:26;;;;;;;15.15;2.20;;;11.40;56.50;;;;;;5004734;28;20026;-71
2022/02/12 10:33:02;;;;;;;9.43;2.97;;;11.50;55.40;;;;;;4980434;28;20394;-72
2022/02/12 10:35:29;;;;;;;14.90;4.33;;;11.60;53.80;;;;;;4987438;28;20022;-72
2022/02/12 10:37:59;;;;;;;13.02;3.47;;;11.40;54.30;;;;;;4983916;28;20281;-72
2022/02/12 10:40:27;;;;;;;13.32;3.35;;;11.20;54.20;;;;;;4988059;28;20078;-73
2022/02/12 10:42:55;;;;;;;7.63;2.80;;;10.80;54.10;;;;;;4982778;28;20034;-73
2022/02/12 10:45:23;;;;;;;12.55;3.40;;;10.80;54.40;;;;;;4986832;28;20037;-72
2022/02/12 10:47:49;;;;;;;10.23;2.80;;;11.20;53.70;;;;;;4981146;28;20037;-72
2022/02/12 10:50:17;;;;;;;15.95;3.08;;;11.40;52.60;;;;;;4984896;28;20104;-72
2022/02/12 10:52:46;;;;;;;8.23;2.20;;;11.60;52.00;;;;;;4984891;28;20041;-72
2022/02/12 10:55:31;;;;;;;10.73;3.15;;;12.10;50.80;;;;;;4985516;28;20030;-73
2022/02/12 10:58:17;;;;;;;9.02;2.17;;;12.40;49.30;;;;;;4987971;28;20026;-72
2022/02/12 11:00:43;;;;;;;9.32;2.10;;;12.10;49.30;;;;;;4988873;28;20046;-73
2022/02/12 11:03:16;;;;;;;8.82;2.05;;;11.70;51.00;;;;;;4988250;28;20034;-72
2022/02/12 11:05:46;;;;;;;9.13;1.92;;;11.70;52.60;;;;;;4988272;28;20052;-73
2022/02/12 11:08:13;;;;;;;8.15;2.28;;;11.30;52.30;;;;;;4981594;28;20026;-72
2022/02/12 11:10:40;;;;;;;7.45;1.85;;;10.90;53.70;;;;;;4988738;28;20096;-72
2022/02/12 11:13:07;;;;;;;13.90;3.35;;;10.50;53.90;;;;;;4990039;28;20892;-72
2022/02/12 11:15:35;;;;;;;14.15;2.67;;;10.20;53.90;;;;;;4982293;28;20030;-73
2022/02/12 11:18:05;;;;;;;13.75;1.98;;;9.90;55.20;;;;;;4977882;28;20027;-73
2022/02/12 11:20:34;;;;;;;8.10;1.58;;;9.60;54.90;;;;;;4984834;28;20748;-73
2022/02/12 11:23:18;;;;;;;6.53;1.65;;;9.20;57.50;;;;;;4979387;28;20608;-73
2022/02/12 11:25:44;;;;;;;5.97;1.70;;;9.00;59.30;;;;;;4987487;28;20038;-72
2022/02/12 11:28:11;;;;;;;7.38;1.80;;;8.90;58.20;;;;;;4990912;28;20038;-71
2022/02/12 11:30:38;;;;;;;7.38;1.98;;;8.70;57.90;;;;;;4993205;28;20117;-71
2022/02/12 11:33:18;;;;;;;8.23;2.80;;;8.60;59.30;;;;;;4986446;28;20061;-73
2022/02/12 11:35:44;;;;;;;7.47;2.60;;;8.50;58.00;;;;;;4985599;28;20034;-72
2022/02/12 11:38:36;;;;;;;6.32;1.45;;;8.40;57.20;;;;;;4993566;28;20092;-72
2022/02/12 11:41:20;;;;;;;5.57;1.70;;;8.30;57.40;;;;;;4986502;28;20042;-72
2022/02/12 11:43:47;;;;;;;5.93;1.90;;;8.20;58.90;;;;;;4980416;28;20107;-72
2022/02/12 11:46:14;;;;;;;3.03;1.58;;;8.30;60.50;;;;;;4991172;28;20034;-72
2022/02/12 11:48:40;;;;;;;11.10;2.00;;;8.40;59.20;;;;;;4990849;28;20529;-71
2022/02/12 11:51:10;;;;;;;9.52;1.00;;;8.50;58.30;;;;;;4984334;28;20034;-72
2022/02/12 11:53:44;;;;;;;11.27;2.28;;;8.40;55.40;;;;;;4983412;28;20039;-72
2022/02/12 11:56:14;;;;;;;6.05;0.77;;;8.20;54.30;;;;;;4984714;28;20031;-72
2022/02/12 11:58:43;;;;;;;4.25;1.42;;;8.10;53.80;;;;;;4993063;28;20045;-73
2022/02/12 12:01:21;;;;;;;5.15;0.95;;;8.00;53.10;;;;;;4992614;28;20030;-73
2022/02/12 12:04:05;;;;;;;5.70;1.60;;;7.90;54.30;;;;;;4991552;28;20112;-73
2022/02/12 12:06:35;;;;;;;7.13;2.00;;;7.90;55.00;;;;;;4989710;28;20069;-73
2022/02/12 12:09:12;;;;;;;12.05;4.85;;;7.80;55.80;;;;;;4982780;28;20532;-73
2022/02/12 12:11:40;;;;;;;14.45;3.55;;;7.90;55.50;;;;;;4988873;28;20037;-73
2022/02/12 12:14:24;;;;;;;7.47;2.22;;;8.00;55.90;;;;;;4990739;28;20117;-73
2022/02/12 12:17:02;;;;;;;5.82;1.90;;;8.10;55.70;;;;;;4994755;28;20707;-73
2022/02/12 12:19:39;;;;;;;6.57;1.35;;;8.10;54.30;;;;;;4992350;28;20430;-73
2022/02/12 12:22:12;;;;;;;6.80;1.35;;;8.10;54.20;;;;;;4992322;28;20042;-73
2022/02/12 12:24:39;;;;;;;5.32;1.67;;;8.00;55.40;;;;;;4976420;28;20402;-73
2022/02/12 12:27:06;;;;;;;4.80;1.70;;;7.90;54.80;;;;;;4987525;28;20030;-73
2022/02/12 12:32:22;;;;;;;7.88;2.33;;;7.70;55.50;;;;;;4982141;28;20041;-71
2022/02/12 12:34:53;;;;;;;6.70;1.38;;;7.70;55.50;;;;;;4980653;28;20113;-71
2022/02/12 12:37:22;;;;;;;10.90;1.90;;;7.50;54.60;;;;;;4979108;28;20027;-71
2022/02/12 12:39:48;;;;;;;9.55;1.40;;;7.30;55.40;;;;;;4988825;28;20049;-71
2022/02/12 12:42:16;;;;;;;6.30;1.27;;;7.20;55.10;;;;;;4981700;28;20019;-71
2022/02/12 12:44:42;;;;;;;1.90;1.30;;;7.10;55.90;;;;;;4985989;28;20022;-72
2022/02/12 12:47:09;;;;;;;3.15;1.17;;;7.10;56.70;;;;;;4983745;28;20026;-69
2022/02/12 12:49:39;;;;;;;6.90;1.10;;;7.00;55.90;;;;;;4982496;28;20054;-71
2022/02/12 12:52:10;;;;;;;4.82;1.30;;;7.00;56.40;;;;;;4988962;28;20666;-72
2022/02/12 12:54:42;;;;;;;4.97;0.85;;;6.90;57.50;;;;;;4982300;28;20034;-72
2022/02/12 12:57:10;;;;;;;8.75;1.35;;;7.10;58.50;;;;;;4994820;28;20125;-72
2022/02/12 12:59:53;;;;;;;6.38;2.00;;;7.10;57.50;;;;;;4989689;28;20117;-70
2022/02/12 13:02:20;;;;;;;5.47;1.85;;;7.10;59.10;;;;;;4990094;28;20037;-71
2022/02/12 13:04:48;;;;;;;8.05;1.50;;;7.30;57.90;;;;;;4984489;28;20117;-69